createdAt,value
2024-01-15T00:01:02.855Z,98819.91
2024-01-15T00:03:06.913Z,98814.00
2024-01-15T00:05:10.611Z,98807.91
2024-01-15T00:07:12.400Z,98830.78
2024-01-15T00:09:17.207Z,98797.38
2024-01-15T00:11:22.592Z,98794.63
2024-01-15T00:13:26.824Z,98812.31
2024-01-15T00:15:30.523Z,98821.09
2024-01-15T00:17:34.248Z,98786.19
2024-01-15T00:19:38.317Z,98791.88
2024-01-15T00:21:44.178Z,98790.94
2024-01-15T00:23:47.877Z,98775.25
2024-01-15T00:25:52.733Z,98794.69
2024-01-15T00:27:55.680Z,98785.38
2024-01-15T00:29:59.959Z,98785.44
2024-01-15T00:32:03.436Z,98784.63
2024-01-15T00:34:06.807Z,98776.59
2024-01-15T00:36:10.380Z,98717.38
2024-01-15T00:38:13.423Z,98730.34
2024-01-15T00:40:17.323Z,98766.47
2024-01-15T00:42:20.695Z,98737.59
2024-01-15T00:44:25.167Z,98751.94
2024-01-15T00:46:30.800Z,98745.91
2024-01-15T00:48:34.124Z,98708.03
2024-01-15T00:50:37.343Z,98754.94
2024-01-15T00:52:40.342Z,98740.56
2024-01-15T00:54:42.407Z,98746.69
2024-01-15T00:56:47.872Z,98711.63
2024-01-15T00:58:49.657Z,98740.81
2024-01-15T01:00:52.797Z,98738.03
2024-01-15T01:02:57.140Z,98719.66
2024-01-15T01:04:59.938Z,98733.09
2024-01-15T01:07:02.902Z,98745.91
2024-01-15T01:09:06.147Z,98744.94
2024-01-15T01:11:11.061Z,98696.91
2024-01-15T01:13:14.011Z,98732.09
2024-01-15T01:15:17.200Z,98727.88
2024-01-15T01:17:19.307Z,98699.69
2024-01-15T01:19:24.179Z,98735.72
2024-01-15T01:21:27.403Z,98703.50
2024-01-15T01:23:30.754Z,98738.22
2024-01-15T01:25:34.188Z,98742.72
2024-01-15T01:27:37.975Z,98705.34
2024-01-15T01:29:41.229Z,98736.97
2024-01-15T01:31:47.376Z,98736.91
2024-01-15T01:33:49.511Z,98740.16
2024-01-15T01:35:54.851Z,98716.44
2024-01-15T01:37:58.000Z,98735.81
2024-01-15T01:40:02.636Z,98725.63
2024-01-15T01:42:06.661Z,98731.88
2024-01-15T01:44:09.795Z,98720.44
2024-01-15T01:46:13.373Z,98722.94
2024-01-15T01:48:16.624Z,98708.50
2024-01-15T01:50:19.787Z,98714.53
2024-01-15T01:52:24.585Z,98706.72
2024-01-15T01:54:29.918Z,98730.56
2024-01-15T01:56:34.761Z,98722.06
2024-01-15T01:58:37.825Z,98709.88
2024-01-15T02:00:41.316Z,98724.53
2024-01-15T02:02:45.389Z,98702.78
2024-01-15T02:04:48.483Z,98695.34
2024-01-15T02:06:51.741Z,98728.63
2024-01-15T02:08:56.350Z,98708.50
2024-01-15T02:11:00.484Z,98695.78
2024-01-15T02:13:02.332Z,98678.03
2024-01-15T02:15:05.614Z,98690.44
2024-01-15T02:17:11.645Z,98687.16
2024-01-15T02:19:18.696Z,98688.75
2024-01-15T02:21:21.966Z,98712.03
2024-01-15T02:23:26.125Z,98717.72
2024-01-15T02:25:27.842Z,98713.88
2024-01-15T02:27:31.381Z,98724.44
2024-01-15T02:29:34.288Z,98713.97
2024-01-15T02:31:36.708Z,98709.53
2024-01-15T02:33:39.897Z,98701.44
2024-01-15T02:35:44.293Z,98701.44
2024-01-15T02:37:46.047Z,98703.50
2024-01-15T02:39:51.811Z,98693.59
2024-01-15T02:41:57.249Z,98697.09
2024-01-15T02:44:00.487Z,98687.25
2024-01-15T02:46:03.222Z,98694.09
2024-01-15T02:48:05.624Z,98677.00
2024-01-15T02:50:09.356Z,98693.75
2024-01-15T02:52:13.175Z,98687.94
2024-01-15T02:54:15.976Z,98678.06
2024-01-15T02:56:20.501Z,98687.06
2024-01-15T02:58:23.403Z,98703.00
2024-01-15T03:00:26.362Z,98689.44
2024-01-15T03:02:29.546Z,98687.19
2024-01-15T03:04:32.457Z,98686.47
2024-01-15T03:06:34.353Z,98676.38
2024-01-15T03:08:37.662Z,98682.41
2024-01-15T03:10:40.722Z,98688.06
2024-01-15T03:12:44.379Z,98671.47
2024-01-15T03:14:48.920Z,98696.91
2024-01-15T03:16:51.977Z,98679.63
2024-01-15T03:18:54.744Z,98667.31
2024-01-15T03:20:57.579Z,98673.13
2024-01-15T03:23:00.320Z,98664.88
2024-01-15T03:25:03.279Z,98680.97
2024-01-15T03:27:06.773Z,98675.28
2024-01-15T03:29:11.291Z,98659.44
2024-01-15T03:31:14.231Z,98671.22
2024-01-15T03:33:17.703Z,98667.44
2024-01-15T03:35:20.881Z,98664.03
2024-01-15T03:37:26.509Z,98676.97
2024-01-15T03:39:29.237Z,98642.03
2024-01-15T03:41:32.362Z,98662.44
2024-01-15T03:43:35.209Z,98662.63
2024-01-15T03:45:39.304Z,98652.34
2024-01-15T03:47:43.107Z,98638.53
2024-01-15T03:49:45.980Z,98632.84
2024-01-15T03:51:49.080Z,98655.69
2024-01-15T03:53:51.236Z,98651.19
2024-01-15T03:55:54.564Z,98637.75
2024-01-15T03:58:00.165Z,98623.66
2024-01-15T04:00:02.661Z,98635.28
2024-01-15T04:02:06.914Z,98635.06
2024-01-15T04:04:09.761Z,98635.50
2024-01-15T04:06:12.714Z,98641.50
2024-01-15T04:08:15.474Z,98637.16
2024-01-15T04:10:18.169Z,98624.63
2024-01-15T04:12:21.021Z,98620.47
2024-01-15T04:14:24.067Z,98608.03
2024-01-15T04:16:26.929Z,98608.28
2024-01-15T04:18:31.392Z,98613.44
2024-01-15T04:20:34.756Z,98616.53
2024-01-15T04:22:39.968Z,98611.59
2024-01-15T04:24:43.477Z,98595.22
2024-01-15T04:26:47.484Z,98593.94
2024-01-15T04:28:50.643Z,98614.94
2024-01-15T04:30:54.153Z,98616.44
2024-01-15T04:32:57.101Z,98615.88
2024-01-15T04:35:01.574Z,98596.69
2024-01-15T04:37:06.606Z,98618.66
2024-01-15T04:39:09.619Z,98591.59
2024-01-15T04:41:13.947Z,98615.53
2024-01-15T04:43:17.277Z,98612.34
2024-01-15T04:45:20.935Z,98606.94
2024-01-15T04:47:23.801Z,98596.09
2024-01-15T04:49:27.829Z,98526.31
2024-01-15T04:51:32.280Z,98603.94
2024-01-15T04:53:35.281Z,98600.69
2024-01-15T04:55:38.516Z,98593.16
2024-01-15T04:57:42.819Z,98585.75
2024-01-15T04:59:45.879Z,98521.19
2024-01-15T05:01:50.811Z,98594.75
2024-01-15T05:03:55.532Z,98578.72
2024-01-15T05:06:00.419Z,98593.16
2024-01-15T05:08:05.017Z,98577.56
2024-01-15T05:10:12.198Z,98591.66
2024-01-15T05:12:15.703Z,98511.69
2024-01-15T05:14:18.497Z,98594.41
2024-01-15T05:16:21.233Z,98588.66
2024-01-15T05:18:23.167Z,98597.66
2024-01-15T05:20:26.655Z,98597.75
2024-01-15T05:22:30.398Z,98574.47
2024-01-15T05:24:34.065Z,98589.72
2024-01-15T05:26:36.927Z,98588.97
2024-01-15T05:28:40.156Z,98592.81
2024-01-15T05:30:43.434Z,98566.72
2024-01-15T05:32:47.785Z,98568.22
2024-01-15T05:34:50.657Z,98574.97
2024-01-15T05:36:53.678Z,98549.44
2024-01-15T05:38:56.557Z,98569.63
2024-01-15T05:41:02.096Z,98558.69
2024-01-15T05:43:03.989Z,98572.63
2024-01-15T05:45:07.838Z,98569.72
2024-01-15T05:47:11.472Z,98550.41
2024-01-15T05:49:15.332Z,98556.78
2024-01-15T05:51:19.008Z,98569.00
2024-01-15T05:53:21.917Z,98547.75
2024-01-15T05:55:24.652Z,98530.81
2024-01-15T05:57:29.025Z,98533.91
2024-01-15T05:59:34.761Z,98562.34
2024-01-15T06:01:37.696Z,98576.69
2024-01-15T06:03:41.260Z,98546.75
2024-01-15T06:05:44.492Z,98567.19
2024-01-15T06:07:47.416Z,98573.88
2024-01-15T06:09:50.376Z,98559.97
2024-01-15T06:11:52.875Z,98575.22
2024-01-15T06:13:57.322Z,98578.91
2024-01-15T06:16:06.721Z,98564.19
2024-01-15T06:18:13.706Z,98559.44
2024-01-15T06:20:17.479Z,98544.16
2024-01-15T06:22:19.636Z,98550.16
2024-01-15T06:24:22.497Z,98564.84
2024-01-15T06:26:25.885Z,98567.50
2024-01-15T06:28:28.819Z,98569.53
2024-01-15T06:30:33.256Z,98561.41
2024-01-15T06:32:36.121Z,98532.72
2024-01-15T06:37:01.290Z,98576.31
2024-01-15T06:39:08.067Z,98493.75
2024-01-15T06:41:11.248Z,98546.88
2024-01-15T06:43:14.859Z,98538.97
2024-01-15T06:45:22.404Z,98564.53
2024-01-15T06:47:37.295Z,98560.16
2024-01-15T06:49:40.099Z,98592.25
2024-01-15T06:51:44.185Z,98567.00
2024-01-15T06:53:48.695Z,98572.44
2024-01-15T06:55:52.783Z,98513.72
2024-01-15T06:57:55.055Z,98554.56
2024-01-15T06:59:58.175Z,98536.72
2024-01-15T07:02:04.362Z,98581.75
2024-01-15T07:04:09.486Z,98585.91
2024-01-15T07:06:15.003Z,98586.66
2024-01-15T07:08:19.534Z,98556.03
2024-01-15T07:10:23.304Z,98583.91
2024-01-15T07:12:28.538Z,98582.81
2024-01-15T07:14:31.417Z,98572.97
2024-01-15T07:16:37.929Z,98586.56
2024-01-15T07:18:43.464Z,98609.34
2024-01-15T07:20:50.140Z,98598.78
2024-01-15T07:22:52.886Z,98591.94
2024-01-15T07:24:56.833Z,98603.38
2024-01-15T07:27:00.203Z,98589.97
2024-01-15T07:29:02.952Z,98602.72
2024-01-15T07:31:05.142Z,98612.56
2024-01-15T07:33:08.734Z,98602.09
2024-01-15T07:35:12.991Z,98614.34
2024-01-15T07:37:17.599Z,98621.56
2024-01-15T07:39:20.473Z,98608.84
2024-01-15T07:41:23.276Z,98589.91
2024-01-15T07:43:25.136Z,98625.63
2024-01-15T07:45:27.872Z,98624.44
2024-01-15T07:47:32.023Z,98633.97
2024-01-15T07:49:36.616Z,98596.22
2024-01-15T07:51:41.614Z,98630.03
2024-01-15T07:53:46.012Z,98631.72
2024-01-15T07:55:49.077Z,98636.31
2024-01-15T07:57:59.089Z,98606.34
2024-01-15T08:00:12.098Z,98639.50
2024-01-15T08:02:15.507Z,98653.00
2024-01-15T08:04:17.325Z,98638.47
2024-01-15T08:06:20.595Z,98617.25
2024-01-15T08:08:24.312Z,98616.00
2024-01-15T08:10:31.033Z,98648.50
2024-01-15T08:12:35.199Z,98633.97
2024-01-15T08:14:40.073Z,98639.31
2024-01-15T08:16:44.642Z,98635.69
2024-01-15T08:18:49.080Z,98628.41
2024-01-15T08:20:52.711Z,98641.47
2024-01-15T08:22:55.913Z,98558.75
2024-01-15T08:24:59.008Z,98658.88
2024-01-15T08:27:03.518Z,98656.53
2024-01-15T08:29:06.952Z,98641.66
2024-01-15T08:31:08.829Z,98631.28
2024-01-15T08:33:21.261Z,98642.41
2024-01-15T08:35:26.433Z,98660.38
2024-01-15T08:37:28.654Z,98639.13
2024-01-15T08:39:32.438Z,98650.34
2024-01-15T08:41:35.912Z,98650.66
2024-01-15T08:43:40.800Z,98636.75
2024-01-15T08:45:43.979Z,98645.41
2024-01-15T08:47:46.750Z,98623.50
2024-01-15T08:49:49.629Z,98583.78
2024-01-15T08:51:53.820Z,98657.63
2024-01-15T08:53:57.058Z,98660.16
2024-01-15T08:56:00.179Z,98658.47
2024-01-15T08:58:03.025Z,98653.53
2024-01-15T09:00:09.987Z,98643.63
2024-01-15T09:02:12.821Z,98657.72
2024-01-15T09:04:15.802Z,98658.16
2024-01-15T09:06:18.632Z,98668.31
2024-01-15T09:08:20.365Z,98653.88
2024-01-15T09:10:23.273Z,98671.94
2024-01-15T09:12:27.719Z,98663.41
2024-01-15T09:14:36.506Z,98675.28
2024-01-15T09:16:40.813Z,98642.41
2024-01-15T09:19:01.947Z,98677.72
2024-01-15T09:21:06.180Z,98658.03
2024-01-15T09:23:09.337Z,98680.94
2024-01-15T09:25:11.265Z,98680.81
2024-01-15T09:27:14.149Z,98676.88
2024-01-15T09:29:18.955Z,98680.75
2024-01-15T09:31:22.898Z,98693.03
2024-01-15T09:33:27.292Z,98651.84
2024-01-15T09:35:30.517Z,98681.06
2024-01-15T09:37:42.295Z,98684.50
2024-01-15T09:39:51.381Z,98683.81
2024-01-15T09:41:55.949Z,98657.94
2024-01-15T09:44:00.386Z,98665.34
2024-01-15T09:46:03.762Z,98645.31
2024-01-15T09:48:09.082Z,98652.56
2024-01-15T09:50:13.469Z,98680.59
2024-01-15T09:52:18.314Z,98682.94
2024-01-15T09:54:21.060Z,98684.09
2024-01-15T09:56:24.207Z,98673.28
2024-01-15T09:58:26.474Z,98599.72
2024-01-15T10:00:30.045Z,98689.47
2024-01-15T10:02:33.061Z,98649.44
2024-01-15T10:04:36.053Z,98656.63
2024-01-15T10:06:42.339Z,98668.81
2024-01-15T10:08:46.525Z,98671.06
2024-01-15T10:10:49.986Z,98669.56
2024-01-15T10:12:52.975Z,98658.34
2024-01-15T10:14:57.265Z,98668.38
2024-01-15T10:17:00.000Z,98660.66
2024-01-15T10:19:02.101Z,98600.38
2024-01-15T10:21:05.452Z,98654.16
2024-01-15T10:23:11.881Z,98659.50
2024-01-15T10:25:14.245Z,98661.00
2024-01-15T10:27:20.441Z,98638.44
2024-01-15T10:29:22.561Z,98603.81
2024-01-15T10:31:28.051Z,98650.56
2024-01-15T10:33:34.774Z,98643.22
2024-01-15T10:35:39.577Z,98659.66
2024-01-15T10:37:44.885Z,98664.84
2024-01-15T10:39:50.490Z,98643.13
2024-01-15T10:41:53.696Z,98638.34
2024-01-15T10:43:56.663Z,98663.13
2024-01-15T10:46:00.882Z,98652.88
2024-01-15T10:48:05.415Z,98658.34
2024-01-15T10:50:10.406Z,98641.97
2024-01-15T10:52:13.709Z,98639.19
2024-01-15T10:54:16.740Z,98646.03
2024-01-15T10:56:20.984Z,98662.50
2024-01-15T10:58:24.528Z,98607.84
2024-01-15T11:00:28.614Z,98650.53
2024-01-15T11:02:31.890Z,98656.50
2024-01-15T11:04:35.033Z,98654.47
2024-01-15T11:06:46.217Z,98665.69
2024-01-15T11:08:51.170Z,98653.38
2024-01-15T11:10:55.896Z,98639.91
2024-01-15T11:13:00.161Z,98661.19
2024-01-15T11:15:10.311Z,98657.84
2024-01-15T11:17:12.642Z,98638.19
2024-01-15T11:19:15.664Z,98662.59
2024-01-15T11:21:28.701Z,98624.81
2024-01-15T11:23:43.731Z,98673.31
2024-01-15T11:25:46.750Z,98660.34
2024-01-15T11:27:53.179Z,98672.66
2024-01-15T11:30:07.962Z,98678.09
2024-01-15T11:32:11.410Z,98674.13
2024-01-15T11:34:16.473Z,98664.63
2024-01-15T11:36:19.418Z,98671.91
2024-01-15T11:38:31.631Z,98661.69
2024-01-15T11:40:40.536Z,98681.38
2024-01-15T11:42:43.496Z,98689.41
2024-01-15T11:44:46.052Z,98688.31
2024-01-15T11:46:59.954Z,98681.16
2024-01-15T11:49:06.866Z,98669.25
2024-01-15T11:51:10.602Z,98684.56
2024-01-15T11:53:18.676Z,98582.16
2024-01-15T11:55:24.397Z,98657.88
2024-01-15T11:57:34.143Z,98688.97
2024-01-15T11:59:37.059Z,98688.91
2024-01-15T12:01:39.861Z,98711.56
2024-01-15T12:03:44.233Z,98685.75
2024-01-15T12:05:47.905Z,98683.66
2024-01-15T12:07:52.558Z,98680.56
2024-01-15T12:09:55.412Z,98689.25
2024-01-15T12:12:06.829Z,98695.81
2024-01-15T12:14:09.511Z,98701.72
2024-01-15T12:16:12.902Z,98688.59
2024-01-15T12:18:17.907Z,98689.13
2024-01-15T12:20:21.890Z,98691.38
2024-01-15T12:22:24.902Z,98673.50
2024-01-15T12:24:27.720Z,98686.88
2024-01-15T12:26:31.321Z,98697.47
2024-01-15T12:28:33.343Z,98698.53
2024-01-15T12:30:37.214Z,98688.59
2024-01-15T12:32:40.064Z,98698.47
2024-01-15T12:34:43.403Z,98695.97
2024-01-15T12:36:49.431Z,98699.38
2024-01-15T12:38:53.064Z,98697.38
2024-01-15T12:40:55.876Z,98699.72
2024-01-15T12:42:58.656Z,98695.78
2024-01-15T12:45:02.201Z,98703.00
2024-01-15T12:47:06.781Z,98690.59
2024-01-15T12:49:11.776Z,98716.22
2024-01-15T12:51:15.072Z,98717.91
2024-01-15T12:53:20.039Z,98659.19
2024-01-15T12:55:23.230Z,98713.84
2024-01-15T12:57:29.292Z,98700.94
2024-01-15T12:59:35.055Z,98705.38
2024-01-15T13:01:38.493Z,98714.72
2024-01-15T13:03:41.710Z,98690.44
2024-01-15T13:05:46.415Z,98700.91
2024-01-15T13:07:49.531Z,98736.06
2024-01-15T13:09:54.980Z,98730.72
2024-01-15T13:11:58.344Z,98732.56
2024-01-15T13:14:01.457Z,98709.94
2024-01-15T13:16:04.805Z,98735.72
2024-01-15T13:18:11.340Z,98742.16
2024-01-15T13:20:14.807Z,98736.66
2024-01-15T13:22:18.053Z,98714.81
2024-01-15T13:24:21.882Z,98743.06
2024-01-15T13:26:26.256Z,98716.38
2024-01-15T13:28:29.174Z,98712.22
2024-01-15T13:30:30.955Z,98741.31
2024-01-15T13:32:33.938Z,98760.88
2024-01-15T13:34:36.860Z,98751.44
2024-01-15T13:36:40.224Z,98747.72
2024-01-15T13:38:45.492Z,98759.28
2024-01-15T13:40:48.713Z,98759.16
2024-01-15T13:42:53.793Z,98720.66
2024-01-15T13:45:02.126Z,98755.09
2024-01-15T13:47:06.852Z,98756.53
2024-01-15T13:49:10.867Z,98763.28
2024-01-15T13:51:15.746Z,98745.16
2024-01-15T13:53:17.714Z,98766.06
2024-01-15T13:55:21.464Z,98770.56
2024-01-15T13:57:24.748Z,98758.38
2024-01-15T13:59:29.696Z,98776.16
2024-01-15T14:01:34.795Z,98771.66
2024-01-15T14:03:38.165Z,98792.53
2024-01-15T14:05:40.973Z,98793.91
2024-01-15T14:07:44.485Z,98782.66
2024-01-15T14:09:47.859Z,98786.84
2024-01-15T14:11:50.081Z,98769.06
2024-01-15T14:13:53.138Z,98797.66
2024-01-15T14:15:58.155Z,98799.16
2024-01-15T14:18:02.782Z,98785.84
2024-01-15T14:20:07.909Z,98788.94
2024-01-15T14:22:11.037Z,98797.13
2024-01-15T14:24:15.041Z,98772.84
2024-01-15T14:26:18.436Z,98798.53
2024-01-15T14:28:20.709Z,98821.19
2024-01-15T14:30:24.479Z,98821.59
2024-01-15T14:32:28.673Z,98825.09
2024-01-15T14:34:31.745Z,98721.88
2024-01-15T14:36:34.785Z,98818.34
2024-01-15T14:38:37.603Z,98784.09
2024-01-15T14:40:40.381Z,98817.16
2024-01-15T14:42:48.203Z,98824.44
2024-01-15T14:44:50.970Z,98835.53
2024-01-15T14:46:54.159Z,98843.97
2024-01-15T14:48:58.385Z,98845.81
2024-01-15T14:51:01.548Z,98849.91
2024-01-15T14:53:05.655Z,98837.94
2024-01-15T14:55:10.071Z,98854.31
2024-01-15T14:57:13.040Z,98858.16
2024-01-15T14:59:16.391Z,98836.72
2024-01-15T15:01:21.158Z,98867.03
2024-01-15T15:03:26.325Z,98851.00
2024-01-15T15:05:30.824Z,98868.28
2024-01-15T15:07:34.343Z,98858.44
2024-01-15T15:09:38.773Z,98855.84
2024-01-15T15:11:42.344Z,98850.81
2024-01-15T15:13:46.159Z,98879.38
2024-01-15T15:15:49.231Z,98873.66
2024-01-15T15:17:52.001Z,98871.59
2024-01-15T15:19:54.770Z,98881.72
2024-01-15T15:22:00.087Z,98883.72
2024-01-15T15:24:02.918Z,98852.81
2024-01-15T15:26:06.032Z,98886.41
2024-01-15T15:28:09.777Z,98884.47
2024-01-15T15:30:12.023Z,98882.97
2024-01-15T15:32:14.882Z,98895.84
2024-01-15T15:34:17.899Z,98898.19
2024-01-15T15:36:20.992Z,98882.66
2024-01-15T15:38:25.349Z,98909.69
2024-01-15T15:40:28.215Z,98872.88
2024-01-15T15:42:31.262Z,98927.28
2024-01-15T15:44:34.021Z,98910.84
2024-01-15T15:46:35.705Z,98916.19
2024-01-15T15:48:39.139Z,98917.59
2024-01-15T15:50:42.007Z,98916.66
2024-01-15T15:52:46.215Z,98922.50
2024-01-15T15:54:50.484Z,98935.13
2024-01-15T15:56:54.892Z,98933.28
2024-01-15T15:58:58.244Z,98934.09
2024-01-15T16:01:01.296Z,98928.59
2024-01-15T16:03:04.309Z,98948.66
2024-01-15T16:05:11.030Z,98944.50
2024-01-15T16:07:15.512Z,98939.28
2024-01-15T16:09:17.302Z,98940.03
2024-01-15T16:11:21.599Z,98951.47
2024-01-15T16:13:23.458Z,98936.72
2024-01-15T16:15:29.064Z,98940.81
2024-01-15T16:23:16.125Z,98959.56
2024-01-15T16:23:31.028Z,98969.50
2024-01-15T16:23:44.577Z,98965.91
2024-01-15T16:25:18.393Z,98970.50
2024-01-15T16:27:23.195Z,98968.34
2024-01-15T16:29:28.373Z,98980.66
2024-01-15T16:31:31.194Z,98976.81
2024-01-15T16:33:34.699Z,98961.91
2024-01-15T16:35:38.572Z,98985.84
2024-01-15T16:37:41.992Z,98978.78
2024-01-15T16:39:45.234Z,98972.50
2024-01-15T16:41:47.877Z,98996.66
2024-01-15T16:43:52.441Z,98998.56
2024-01-15T16:45:54.240Z,99002.28
2024-01-15T16:47:57.092Z,98989.63
2024-01-15T16:50:01.177Z,99000.16
2024-01-15T16:52:06.525Z,98983.53
2024-01-15T16:54:10.011Z,99001.75
2024-01-15T16:56:13.129Z,98991.78
2024-01-15T16:58:16.344Z,99017.06
2024-01-15T17:00:20.324Z,99007.34
2024-01-15T17:02:22.035Z,99020.44
2024-01-15T17:04:25.212Z,99020.47
2024-01-15T17:06:27.923Z,99025.22
2024-01-15T17:08:29.696Z,99006.81
2024-01-15T17:10:32.771Z,99035.03
2024-01-15T17:12:35.502Z,99005.38
2024-01-15T17:14:38.387Z,99035.88
2024-01-15T17:16:42.610Z,99024.56
2024-01-15T17:18:45.896Z,99047.63
2024-01-15T17:20:49.352Z,99049.22
2024-01-15T17:22:52.281Z,99001.13
2024-01-15T17:24:53.991Z,99039.06
2024-01-15T17:26:56.700Z,99053.81
2024-01-15T17:28:59.423Z,99047.53
2024-01-15T17:31:02.309Z,99070.94
2024-01-15T17:33:07.420Z,99043.28
2024-01-15T17:35:10.701Z,99071.94
2024-01-15T17:37:12.568Z,99067.38
2024-01-15T17:39:16.844Z,99069.69
2024-01-15T17:41:21.305Z,99066.00
2024-01-15T17:43:24.047Z,99074.84
2024-01-15T17:45:27.793Z,99064.34
2024-01-15T17:47:29.555Z,99084.75
2024-01-15T17:49:34.491Z,99077.50
2024-01-15T17:51:36.333Z,99047.38
2024-01-15T17:53:41.232Z,99074.75
2024-01-15T17:55:43.415Z,99060.34
2024-01-15T17:57:46.290Z,99084.91
2024-01-15T17:59:49.103Z,99076.94
2024-01-15T18:01:52.824Z,99082.97
2024-01-15T18:03:57.548Z,99081.72
2024-01-15T18:06:04.464Z,99055.44
2024-01-15T18:08:06.589Z,99064.09
2024-01-15T18:10:11.011Z,99093.72
2024-01-15T18:12:12.732Z,99087.41
2024-01-15T18:14:16.722Z,99088.38
2024-01-15T18:16:23.840Z,99073.25
2024-01-15T18:18:27.701Z,99083.22
2024-01-15T18:20:31.847Z,99099.81
2024-01-15T18:22:36.268Z,99089.25
2024-01-15T18:24:45.592Z,99110.63
2024-01-15T18:26:50.562Z,99119.28
2024-01-15T18:28:54.618Z,99125.56
2024-01-15T18:30:57.544Z,99100.31
2024-01-15T18:33:03.751Z,99113.00
2024-01-15T18:35:06.585Z,99126.31
2024-01-15T18:37:12.396Z,99120.81
2024-01-15T18:39:17.920Z,99127.41
2024-01-15T18:41:25.412Z,99124.84
2024-01-15T18:43:31.236Z,99124.94
2024-01-15T18:45:36.136Z,99101.44
2024-01-15T18:47:40.094Z,99132.94
2024-01-15T18:49:44.971Z,99150.38
2024-01-15T18:51:54.008Z,99140.97
2024-01-15T18:53:58.536Z,99145.13
2024-01-15T18:56:04.113Z,99164.31
2024-01-15T18:58:06.965Z,99172.66
2024-01-15T19:00:12.013Z,99174.22
2024-01-15T19:02:14.868Z,99176.97
2024-01-15T19:04:19.205Z,99181.50
2024-01-15T19:06:22.554Z,99186.03
2024-01-15T19:08:24.262Z,99168.34
2024-01-15T19:10:27.481Z,99192.16
2024-01-15T19:12:32.077Z,99193.31
2024-01-15T19:14:35.499Z,99195.19
2024-01-15T19:16:40.085Z,99196.34
2024-01-15T19:18:43.020Z,99202.53
2024-01-15T19:20:45.927Z,99184.06
2024-01-15T19:22:49.853Z,99198.00
2024-01-15T19:24:54.764Z,99200.56
2024-01-15T19:26:58.373Z,99207.47
2024-01-15T19:29:02.539Z,99199.59
2024-01-15T19:31:05.251Z,99202.56
2024-01-15T19:33:08.633Z,99206.81
2024-01-15T19:35:11.271Z,99209.53
2024-01-15T19:37:15.918Z,99215.94
2024-01-15T19:39:20.427Z,99231.91
2024-01-15T19:41:23.797Z,99227.75
2024-01-15T19:43:26.916Z,99236.53
2024-01-15T19:45:30.135Z,99233.84
2024-01-15T19:47:33.400Z,99238.06
2024-01-15T19:49:36.427Z,99240.75
2024-01-15T19:51:40.468Z,99248.75
2024-01-15T19:53:43.652Z,99238.50
2024-01-15T19:55:46.339Z,99228.78
2024-01-15T19:57:56.755Z,99249.59
2024-01-15T19:59:59.770Z,99268.94
2024-01-15T20:02:03.948Z,99266.66
2024-01-15T20:04:07.235Z,99274.75
2024-01-15T20:06:12.570Z,99255.47
2024-01-15T20:08:15.763Z,99280.50
2024-01-15T20:10:19.267Z,99273.72
2024-01-15T20:12:22.770Z,99258.13
2024-01-15T20:14:27.056Z,99287.31
2024-01-15T20:16:29.924Z,99293.41
2024-01-15T20:18:34.329Z,99293.06
2024-01-15T20:20:37.430Z,99292.59
2024-01-15T20:22:40.308Z,99292.78
2024-01-15T20:24:43.178Z,99256.06
2024-01-15T20:26:46.070Z,99314.00
2024-01-15T20:28:48.028Z,99326.94
2024-01-15T20:30:51.005Z,99317.88
2024-01-15T20:33:02.410Z,99317.53
2024-01-15T20:35:08.114Z,99291.13
2024-01-15T20:37:10.856Z,99310.75
2024-01-15T20:39:14.741Z,99300.63
2024-01-15T20:41:18.208Z,99332.09
2024-01-15T20:43:21.220Z,99308.94
2024-01-15T20:45:25.459Z,99314.63
2024-01-15T20:47:28.617Z,99329.03
2024-01-15T20:49:31.374Z,99341.22
2024-01-15T20:51:37.852Z,99326.84
2024-01-15T20:53:40.918Z,99321.56
2024-01-15T20:55:45.830Z,99336.66
2024-01-15T20:57:48.533Z,99326.44
2024-01-15T20:59:51.990Z,99345.81
2024-01-15T21:01:54.928Z,99331.44
2024-01-15T21:03:57.564Z,99351.91
2024-01-15T21:05:59.741Z,99349.22
2024-01-15T21:08:04.497Z,99309.47
2024-01-15T21:10:07.377Z,99349.25
2024-01-15T21:12:11.461Z,99352.69
2024-01-15T21:14:19.494Z,99369.78
2024-01-15T21:16:22.827Z,99374.38
2024-01-15T21:18:25.763Z,99370.56
2024-01-15T21:20:28.993Z,99366.41
2024-01-15T21:22:31.918Z,99369.06
2024-01-15T21:24:37.595Z,99366.78
2024-01-15T21:26:39.651Z,99344.78
2024-01-15T21:28:42.628Z,99364.94
2024-01-15T21:30:47.550Z,99377.03
2024-01-15T21:32:50.666Z,99376.69
2024-01-15T21:34:53.540Z,99385.09
2024-01-15T21:36:56.713Z,99399.13
2024-01-15T21:39:00.290Z,99412.50
2024-01-15T21:41:05.055Z,99404.91
2024-01-15T21:43:08.195Z,99409.09
2024-01-15T21:45:11.320Z,99368.91
2024-01-15T21:47:15.458Z,99418.59
2024-01-15T21:49:18.430Z,99415.88
2024-01-15T21:51:22.242Z,99424.22
2024-01-15T21:53:25.006Z,99418.13
2024-01-15T21:55:28.007Z,99424.22
2024-01-15T21:57:32.503Z,99387.06
2024-01-15T21:59:35.521Z,99418.16
2024-01-15T22:01:38.408Z,99431.06
2024-01-15T22:03:40.301Z,99433.34
2024-01-15T22:05:43.821Z,99434.13
2024-01-15T22:07:47.904Z,99413.28
2024-01-15T22:09:49.662Z,99439.09
2024-01-15T22:11:52.314Z,99438.41
2024-01-15T22:13:55.662Z,99414.09
2024-01-15T22:15:58.709Z,99437.25
2024-01-15T22:18:04.075Z,99442.56
2024-01-15T22:20:10.170Z,99446.78
2024-01-15T22:22:12.841Z,99437.28
2024-01-15T22:24:16.518Z,99435.75
2024-01-15T22:26:20.097Z,99438.81
2024-01-15T22:28:23.785Z,99430.88
2024-01-15T22:30:28.368Z,99440.00
2024-01-15T22:32:32.217Z,99424.81
2024-01-15T22:34:35.596Z,99436.16
2024-01-15T22:36:39.065Z,99408.47
2024-01-15T22:38:42.529Z,99429.72
2024-01-15T22:40:45.408Z,99423.59
2024-01-15T22:42:49.159Z,99433.47
2024-01-15T22:44:52.861Z,99425.16
2024-01-15T22:46:57.443Z,99401.63
2024-01-15T22:49:00.435Z,99441.09
2024-01-15T22:51:04.550Z,99449.09
2024-01-15T22:53:07.491Z,99449.91
2024-01-15T22:55:10.727Z,99453.69
2024-01-15T22:57:14.169Z,99460.50
2024-01-15T22:59:22.786Z,99456.28
2024-01-15T23:01:26.242Z,99444.13
2024-01-15T23:03:30.474Z,99462.75
2024-01-15T23:05:33.780Z,99431.22
2024-01-15T23:07:36.455Z,99448.69
2024-01-15T23:09:39.315Z,99452.84
2024-01-15T23:11:42.267Z,99446.41
2024-01-15T23:13:44.954Z,99368.34
2024-01-15T23:15:47.648Z,99441.53
2024-01-15T23:17:50.331Z,99462.03
2024-01-15T23:19:54.511Z,99439.63
2024-01-15T23:21:57.469Z,99449.09
2024-01-15T23:24:00.181Z,99455.16
2024-01-15T23:26:03.046Z,99466.09
2024-01-15T23:28:07.278Z,99464.66
2024-01-15T23:30:11.551Z,99463.16
2024-01-15T23:32:14.268Z,99462.00
2024-01-15T23:34:17.098Z,99435.44
2024-01-15T23:36:21.193Z,99461.63
2024-01-15T23:38:23.940Z,99451.41
2024-01-15T23:40:26.966Z,99458.97
2024-01-15T23:42:28.753Z,99458.28
2024-01-15T23:44:31.602Z,99461.69
2024-01-15T23:46:33.850Z,99466.59
2024-01-15T23:48:36.649Z,99435.06
2024-01-15T23:50:39.642Z,99466.56
2024-01-15T23:52:43.791Z,99468.81
2024-01-15T23:54:45.624Z,99473.00
2024-01-15T23:56:48.425Z,99441.88
2024-01-15T23:58:50.624Z,99485.97
